Time;durP1;ratioP1;P1;durP2;ratioP2;P2;SDS_P1;SDS_P2;PMS_P1;PMS_P2;Temp;Humidity;BMP_temperature;BMP_pressure;BME280_temperature;BME280_humidity;BME280_pressure;Samples;Min_cycle;Max_cycle;Signal;HPM_P1;HPM_P2
2022/04/21 00:02:11;;;;;;;10.90;6.82;;;;;;;12.26;65.40;100651.91;4929119;29;20502;-83
2022/04/21 00:04:38;;;;;;;7.00;6.32;;;;;;;13.16;65.35;100798.72;4945121;28;20054;-82
2022/04/21 00:07:05;;;;;;;7.43;6.65;;;;;;;13.03;65.74;100789.25;4925701;29;20437;-83
2022/04/21 00:09:31;;;;;;;8.23;7.35;;;;;;;12.89;65.93;100759.56;4925425;29;20517;-83
2022/04/21 00:11:59;;;;;;;8.48;6.30;;;;;;;13.09;65.62;100793.13;4925623;29;20052;-83
2022/04/21 00:14:26;;;;;;;7.63;6.88;;;;;;;12.98;65.74;100766.66;4925590;29;20112;-83
2022/04/21 00:16:54;;;;;;;7.88;6.00;;;;;;;12.84;66.35;100757.34;4925588;29;20658;-84
2022/04/21 00:19:21;;;;;;;10.32;6.82;;;;;;;12.84;66.28;100752.03;4925590;29;20119;-84
2022/04/21 00:24:33;;;;;;;8.75;7.85;;;;;;;13.11;66.29;100780.50;4925857;29;20354;-84
2022/04/21 00:27:00;;;;;;;12.43;7.57;;;;;;;13.12;66.51;100781.34;4930135;29;20524;-83
2022/04/21 00:29:26;;;;;;;9.20;7.40;;;;;;;13.19;66.29;100788.59;4928764;29;20059;-84
2022/04/21 00:31:53;;;;;;;10.18;7.15;;;;;;;13.34;65.88;100786.28;4928731;29;20510;-84
2022/04/21 00:34:22;;;;;;;8.88;7.30;;;;;;;13.31;65.89;100786.59;4929930;29;20106;-84
2022/04/21 00:36:48;;;;;;;11.50;7.38;;;;;;;13.11;66.13;100777.84;4928692;29;20528;-84
2022/04/21 00:39:15;;;;;;;8.35;6.82;;;;;;;12.86;66.79;100752.69;4928645;29;20211;-84
2022/04/21 00:41:42;;;;;;;11.07;6.88;;;;;;;12.65;66.76;100720.16;4928411;29;20047;-83
2022/04/21 00:44:09;;;;;;;8.98;7.40;;;;;;;12.72;66.69;100737.19;4928684;29;20047;-83
2022/04/21 00:46:40;;;;;;;9.57;6.85;;;;;;;12.28;67.19;100665.06;4928620;29;20052;-83
2022/04/21 00:49:08;;;;;;;7.75;6.63;;;;;;;12.61;66.83;100701.78;4929995;29;20130;-83
2022/04/21 00:51:35;;;;;;;11.23;7.53;;;;;;;12.96;66.58;100756.19;4928515;29;20056;-83
2022/04/21 00:54:02;;;;;;;7.97;7.15;;;;;;;13.01;66.26;100761.03;4928959;29;20083;-83
2022/04/21 00:56:29;;;;;;;8.48;7.25;;;;;;;11.37;66.77;100491.91;4928139;29;20047;-84
2022/04/21 00:58:57;;;;;;;11.30;7.25;;;;;;;12.70;67.20;100712.56;4928643;29;20062;-83
2022/04/21 01:04:11;;;;;;;7.75;6.97;;;;;;;12.99;67.77;100771.88;4929876;29;20063;-84
2022/04/21 01:06:37;;;;;;;7.38;6.68;;;;;;;12.79;67.92;100733.81;4929614;29;20497;-84
2022/04/21 01:09:04;;;;;;;9.10;7.05;;;;;;;12.90;68.21;100754.09;4929221;29;20055;-83
2022/04/21 01:11:31;;;;;;;10.25;6.97;;;;;;;12.92;68.84;100761.94;4927988;29;20064;-83
2022/04/21 01:13:59;;;;;;;9.95;7.07;;;;;;;12.78;70.38;100731.28;4928358;29;20063;-83
2022/04/21 01:16:25;;;;;;;7.07;6.35;;;;;;;12.79;70.80;100738.28;4927907;29;20068;-84
2022/04/21 01:18:52;;;;;;;9.63;7.07;;;;;;;12.83;70.73;100750.34;4928315;29;20094;-84
2022/04/21 01:21:19;;;;;;;11.68;7.38;;;;;;;12.53;71.26;100699.03;4928471;29;20062;-84
2022/04/21 01:23:46;;;;;;;9.18;6.82;;;;;;;12.70;71.87;100713.38;4927826;29;20047;-84
2022/04/21 01:26:15;;;;;;;9.63;7.45;;;;;;;12.46;71.69;100679.28;4929465;29;20055;-84
2022/04/21 01:28:45;;;;;;;12.75;6.88;;;;;;;12.79;72.33;100741.81;4929280;29;20039;-84
2022/04/21 01:31:11;;;;;;;7.30;6.70;;;;;;;12.81;72.66;100741.66;4928032;29;20086;-85
2022/04/21 01:33:38;;;;;;;8.38;7.25;;;;;;;12.79;73.93;100730.28;4927705;29;20126;-83
2022/04/21 01:36:05;;;;;;;7.78;6.97;;;;;;;12.75;74.17;100727.09;4927933;29;20044;-82
2022/04/21 01:41:17;;;;;;;7.43;6.72;;;;;;;12.89;72.25;100722.25;4929539;29;20062;-83
2022/04/21 01:43:43;;;;;;;9.18;6.53;;;;;;;12.80;72.38;100716.84;4929202;29;20056;-83
2022/04/21 01:46:11;;;;;;;8.43;6.10;;;;;;;12.78;72.78;100729.47;4927699;29;20055;-82
2022/04/21 01:48:37;;;;;;;13.77;7.22;;;;;;;12.78;71.84;100704.66;4928074;29;20059;-83
2022/04/21 01:51:04;;;;;;;15.13;7.22;;;;;;;12.54;72.65;100681.22;4929317;29;20414;-83
2022/04/21 01:53:31;;;;;;;8.10;7.28;;;;;;;12.65;72.46;100694.34;4929224;29;20053;-82
2022/04/21 01:55:58;;;;;;;6.80;6.20;;;;;;;12.43;71.76;100658.28;4928079;29;20449;-82
2022/04/21 01:58:24;;;;;;;7.18;6.57;;;;;;;12.66;72.72;100714.66;4928885;28;20055;-82
2022/04/21 02:00:51;;;;;;;9.43;6.30;;;;;;;12.65;72.67;100725.47;4930722;29;20239;-82
2022/04/21 02:03:18;;;;;;;7.80;5.85;;;;;;;12.62;72.55;100721.25;4927468;29;20059;-83
2022/04/21 02:05:45;;;;;;;7.65;6.88;;;;;;;12.48;72.91;100698.63;4928722;29;20455;-82
2022/04/21 02:08:12;;;;;;;8.35;6.30;;;;;;;12.55;73.16;100701.56;4927740;29;20522;-82
2022/04/21 02:10:39;;;;;;;7.60;6.80;;;;;;;11.93;73.11;100613.38;4943288;28;20394;-82
2022/04/21 02:13:06;;;;;;;7.80;6.88;;;;;;;12.50;73.06;100704.66;4928239;29;20062;-83
2022/04/21 02:15:32;;;;;;;8.73;7.10;;;;;;;12.59;73.42;100717.06;4931371;29;20182;-82
2022/04/21 02:18:03;;;;;;;7.85;6.93;;;;;;;12.61;73.53;100708.94;4931551;29;20049;-82
2022/04/21 02:20:29;;;;;;;7.28;6.47;;;;;;;12.61;73.70;100711.59;4931340;29;20505;-82
2022/04/21 02:22:56;;;;;;;8.00;6.85;;;;;;;12.38;73.15;100671.22;4931186;29;20048;-82
2022/04/21 02:25:23;;;;;;;6.97;6.45;;;;;;;12.58;73.71;100714.56;4931144;29;20078;-82
2022/04/21 02:27:50;;;;;;;11.95;7.50;;;;;;;12.58;73.71;100714.56;4930841;29;20062;-82
2022/04/21 02:30:19;;;;;;;7.88;6.45;;;;;;;12.53;74.43;100696.38;4932363;29;20055;-83
2022/04/21 02:32:46;;;;;;;9.68;7.50;;;;;;;12.54;74.74;100711.34;4931041;29;20167;-82
2022/04/21 02:35:14;;;;;;;7.22;6.53;;;;;;;12.67;73.81;100719.03;4931167;29;20047;-82
2022/04/21 02:37:43;;;;;;;7.88;6.53;;;;;;;12.16;73.20;100638.66;4930584;29;20043;-82
2022/04/21 02:40:10;;;;;;;6.47;5.45;;;;;;;12.44;72.98;100681.25;4930906;29;20047;-82
2022/04/21 02:42:39;;;;;;;9.13;5.72;;;;;;;12.04;72.81;100625.66;4931861;29;20060;-82
2022/04/21 02:45:08;;;;;;;5.97;5.40;;;;;;;12.33;73.28;100668.13;4930702;29;20417;-82
2022/04/21 02:47:36;;;;;;;5.90;5.35;;;;;;;12.57;73.49;100710.22;4930798;29;20059;-84
2022/04/21 02:50:04;;;;;;;7.03;5.97;;;;;;;12.19;74.00;100656.97;4936624;29;20047;-82
2022/04/21 02:52:39;;;;;;;9.77;6.40;;;;;;;12.21;73.69;100664.84;4934333;29;20059;-83
2022/04/21 02:57:53;;;;;;;7.32;6.63;;;;;;;12.55;73.71;100712.22;4949255;29;20036;-84
2022/04/21 03:00:20;;;;;;;6.47;5.88;;;;;;;12.68;73.96;100714.53;4948338;29;20318;-84
2022/04/21 03:02:46;;;;;;;7.20;6.35;;;;;;;12.40;74.02;100669.22;4938157;29;20055;-83
2022/04/21 03:05:13;;;;;;;6.50;6.00;;;;;;;12.00;73.80;100593.19;4931891;29;20165;-84
2022/04/21 03:07:40;;;;;;;8.35;6.65;;;;;;;12.24;73.68;100631.75;4930497;29;20048;-84
2022/04/21 03:10:07;;;;;;;7.63;6.80;;;;;;;12.43;74.06;100657.44;4930623;29;20513;-83
2022/04/21 03:12:34;;;;;;;10.55;6.78;;;;;;;12.65;74.33;100699.69;4930216;29;20406;-82
2022/04/21 03:15:01;;;;;;;7.40;6.70;;;;;;;12.68;73.77;100687.88;4931561;28;20056;-83
2022/04/21 03:17:29;;;;;;;9.48;6.38;;;;;;;12.25;75.26;100638.75;4930088;29;20117;-83
2022/04/21 03:19:56;;;;;;;11.48;6.40;;;;;;;12.30;75.14;100649.78;4930249;29;20063;-82
2022/04/21 03:25:12;;;;;;;9.20;6.95;;;;;;;12.54;75.01;100687.38;4930826;29;20110;-81
2022/04/21 03:27:38;;;;;;;6.78;6.18;;;;;;;12.43;75.46;100666.28;4930888;28;20285;-83
2022/04/21 03:30:06;;;;;;;8.23;6.65;;;;;;;12.11;75.18;100614.31;4929968;29;20060;-82
2022/04/21 03:32:34;;;;;;;6.63;6.00;;;;;;;12.24;74.49;100632.59;4931024;28;20059;-83
2022/04/21 03:35:01;;;;;;;8.48;6.72;;;;;;;12.43;74.90;100674.28;4929754;29;20497;-83
2022/04/21 03:37:28;;;;;;;7.13;6.45;;;;;;;11.82;75.78;100579.78;4945523;28;20059;-83
2022/04/21 03:39:55;;;;;;;9.27;7.25;;;;;;;12.45;77.03;100679.44;4929719;29;20071;-83
2022/04/21 03:42:24;;;;;;;9.02;7.43;;;;;;;12.33;77.07;100653.00;4929332;29;20056;-82
2022/04/21 03:44:51;;;;;;;8.35;6.68;;;;;;;12.38;76.80;100673.88;4929724;29;20059;-83
2022/04/21 03:47:19;;;;;;;7.38;6.68;;;;;;;12.43;76.33;100666.28;4930966;29;20044;-83
2022/04/21 03:49:46;;;;;;;7.40;6.80;;;;;;;11.90;77.28;100577.25;4929952;29;20055;-84
2022/04/21 03:52:12;;;;;;;6.47;5.85;;;;;;;11.84;77.11;100572.47;4931194;29;20357;-84
2022/04/21 03:54:40;;;;;;;6.28;5.68;;;;;;;12.33;76.50;100641.50;4930272;29;20044;-85
2022/04/21 03:57:07;;;;;;;6.30;5.35;;;;;;;12.22;76.13;100626.56;4930894;29;20541;-85
2022/04/21 03:59:35;;;;;;;5.72;5.20;;;;;;;12.38;76.74;100639.25;4931287;29;20058;-85
2022/04/21 04:02:04;;;;;;;5.78;5.20;;;;;;;11.76;76.60;100532.47;4930297;29;20099;-85
2022/04/21 04:04:36;;;;;;;6.00;4.75;;;;;;;12.32;76.41;100632.69;4929760;29;20051;-86
2022/04/21 04:12:37;;;;;;;5.70;4.90;;;;;;;12.29;76.46;100650.78;4930263;29;20269;-87
2022/04/21 04:15:07;;;;;;;5.40;4.90;;;;;;;11.84;76.40;100592.91;4929248;29;20063;-86
2022/04/21 04:17:34;;;;;;;5.93;5.20;;;;;;;11.74;78.09;100559.22;4930319;28;20059;-86
2022/04/21 04:20:01;;;;;;;5.57;5.00;;;;;;;12.14;77.23;100626.47;4929000;29;20466;-85
2022/04/21 04:22:28;;;;;;;7.60;5.38;;;;;;;12.41;78.51;100665.59;4930702;28;20052;-85
2022/04/21 04:24:56;;;;;;;6.13;5.35;;;;;;;12.48;76.93;100664.00;4930361;29;20437;-87
2022/04/21 04:27:24;;;;;;;8.63;6.15;;;;;;;12.47;78.20;100662.31;4929193;29;20399;-86
2022/04/21 04:29:51;;;;;;;6.45;5.55;;;;;;;12.53;77.15;100663.56;4929108;29;20150;-86
2022/04/21 04:32:18;;;;;;;8.82;6.38;;;;;;;12.51;77.16;100665.53;4928890;29;20441;-87
2022/04/21 04:34:45;;;;;;;6.57;5.97;;;;;;;12.33;76.62;100641.50;4928782;29;20292;-86
2022/04/21 04:37:12;;;;;;;8.10;6.35;;;;;;;12.27;78.05;100631.47;4929083;29;20051;-85
2022/04/21 04:39:39;;;;;;;8.23;7.25;;;;;;;12.49;78.25;100663.00;4929113;29;20063;-85
2022/04/21 04:42:20;;;;;;;6.78;5.97;;;;;;;12.16;77.61;100624.47;4930142;28;20067;-85
2022/04/21 04:46:34;;;;;;;6.78;6.10;;;;;;;11.95;78.33;100580.31;4928649;29;20406;-85
2022/04/21 04:47:38;;;;;;;6.32;5.82;;;;;;;12.21;78.27;100629.38;4930092;29;20052;-84
2022/04/21 04:50:06;;;;;;;7.57;6.88;;;;;;;12.38;78.40;100668.56;4928687;29;20059;-85
2022/04/21 04:52:33;;;;;;;7.55;6.85;;;;;;;12.44;78.05;100659.97;4928474;29;20048;-85
2022/04/21 04:55:00;;;;;;;7.60;6.90;;;;;;;12.45;78.45;100656.34;4928854;29;20043;-85
2022/04/21 04:57:27;;;;;;;13.68;6.82;;;;;;;12.31;78.32;100630.19;4929971;29;20058;-86
2022/04/21 05:00:00;;;;;;;7.00;6.30;;;;;;;12.05;78.09;100606.88;4928862;29;20225;-85
2022/04/21 05:02:27;;;;;;;8.07;6.75;;;;;;;11.84;78.64;100574.31;4930260;29;20064;-85
2022/04/21 05:04:53;;;;;;;6.88;6.25;;;;;;;12.43;78.23;100676.06;4928301;29;20059;-85
2022/04/21 05:07:20;;;;;;;8.52;6.05;;;;;;;12.15;78.03;100630.81;4927870;29;20060;-86
2022/04/21 05:09:47;;;;;;;7.38;6.07;;;;;;;12.27;78.92;100650.09;4927117;29;20048;-85
2022/04/21 05:12:14;;;;;;;7.55;5.60;;;;;;;12.40;78.52;100670.09;4932048;29;20062;-85
2022/04/21 05:14:41;;;;;;;7.60;6.88;;;;;;;12.30;78.67;100649.78;4933425;29;20058;-84
2022/04/21 05:17:08;;;;;;;6.65;6.05;;;;;;;12.29;78.05;100658.78;4943326;28;20110;-84
2022/04/21 05:19:34;;;;;;;7.22;6.60;;;;;;;12.25;78.67;100652.88;4927432;29;20059;-84
2022/04/21 05:22:04;;;;;;;7.00;6.38;;;;;;;11.73;79.10;100564.69;4926894;29;20458;-83
2022/04/21 05:24:31;;;;;;;7.82;6.18;;;;;;;12.45;79.39;100677.63;4926845;29;20059;-84
2022/04/21 05:26:59;;;;;;;6.68;6.18;;;;;;;12.32;79.10;100667.28;4926892;29;20075;-85
2022/04/21 05:32:25;;;;;;;7.20;6.50;;;;;;;12.23;78.98;100675.31;4912015;28;20137;-85
2022/04/21 05:34:52;;;;;;;7.13;6.53;;;;;;;12.33;78.61;100673.44;4926822;29;20055;-85
2022/04/21 05:37:19;;;;;;;10.35;6.47;;;;;;;12.30;79.46;100669.25;4931920;29;20160;-86
2022/04/21 05:39:47;;;;;;;7.32;6.60;;;;;;;11.88;80.05;100597.84;4947318;29;20055;-86
2022/04/21 05:42:25;;;;;;;7.75;7.00;;;;;;;12.07;79.14;100636.84;4946255;29;20139;-86
2022/04/21 05:44:53;;;;;;;7.88;6.80;;;;;;;11.44;79.36;100538.19;4936286;28;20122;-86
2022/04/21 05:47:20;;;;;;;7.78;7.00;;;;;;;12.36;79.28;100662.53;4932210;29;20051;-86
2022/04/21 05:49:47;;;;;;;6.82;6.28;;;;;;;12.01;78.76;100607.31;4949877;28;20059;-85
2022/04/21 05:52:16;;;;;;;7.22;6.63;;;;;;;12.16;78.36;100635.13;4936136;28;20051;-86
2022/04/21 05:54:43;;;;;;;6.60;6.05;;;;;;;10.90;78.83;100423.63;4932483;29;20437;-86
2022/04/21 05:57:10;;;;;;;7.57;6.88;;;;;;;12.30;78.83;100647.13;4932336;29;20059;-86
2022/04/21 06:02:23;;;;;;;7.43;6.63;;;;;;;11.55;78.91;100538.00;4931058;29;20324;-83
2022/04/21 06:04:50;;;;;;;6.95;6.35;;;;;;;11.95;79.11;100608.75;4966032;28;20086;-84
2022/04/21 06:07:16;;;;;;;6.80;6.30;;;;;;;12.19;79.23;100630.38;4931624;29;20063;-86
2022/04/21 06:09:43;;;;;;;6.65;6.15;;;;;;;12.14;79.61;100626.47;4916519;29;20075;-85
2022/04/21 06:12:10;;;;;;;6.70;6.15;;;;;;;12.29;79.39;100656.13;4949359;28;20056;-86
2022/04/21 06:14:38;;;;;;;7.43;6.82;;;;;;;12.44;80.72;100659.13;4930910;29;20087;-86
2022/04/21 06:17:05;;;;;;;7.50;6.90;;;;;;;12.05;80.58;100598.06;4930180;29;20055;-85
2022/04/21 06:19:32;;;;;;;7.90;7.20;;;;;;;11.86;79.87;100570.50;4945596;28;20505;-85
2022/04/21 06:21:59;;;;;;;6.93;6.38;;;;;;;11.03;79.95;100429.47;4946498;28;20055;-85
2022/04/21 06:24:26;;;;;;;7.95;7.15;;;;;;;11.34;80.49;100474.41;4932758;29;20353;-85
2022/04/21 06:26:53;;;;;;;8.48;7.55;;;;;;;12.54;80.67;100644.78;4950345;28;20501;-85
2022/04/21 06:29:20;;;;;;;8.15;7.38;;;;;;;11.30;79.82;100415.38;4950685;28;20055;-85
2022/04/21 06:31:46;;;;;;;8.98;8.07;;;;;;;11.64;79.06;100465.34;4951871;28;20109;-86
2022/04/21 06:34:13;;;;;;;9.05;8.15;;;;;;;12.39;78.61;100599.16;4951626;28;20051;-86
2022/04/21 06:36:40;;;;;;;9.45;8.55;;;;;;;11.08;78.89;100394.50;4950630;28;20169;-86
2022/04/21 06:39:07;;;;;;;10.30;8.63;;;;;;;11.63;78.95;100473.47;4951004;28;20051;-86
2022/04/21 06:41:34;;;;;;;10.38;8.85;;;;;;;12.47;78.74;100606.41;4966427;28;20138;-86
2022/04/21 06:49:31;;;;;;;10.60;9.20;;;;;;;12.72;78.53;100657.28;4938745;29;20052;-85
2022/04/21 06:51:58;;;;;;;11.15;10.15;;;;;;;12.46;79.25;100622.56;4935988;29;20303;-83
2022/04/21 06:54:25;;;;;;;10.20;9.20;;;;;;;12.00;78.82;100532.00;4953360;28;20048;-85
2022/04/21 06:56:53;;;;;;;10.75;9.65;;;;;;;11.93;79.17;100528.25;4950875;28;20086;-86
2022/04/21 06:59:19;;;;;;;12.45;11.25;;;;;;;12.81;78.57;100657.22;4947864;28;20154;-84
2022/04/21 07:01:46;;;;;;;12.18;9.40;;;;;;;12.83;78.33;100667.75;4949397;28;20121;-87
2022/04/21 07:04:14;;;;;;;14.02;10.02;;;;;;;12.76;78.70;100640.03;4935703;28;20048;-84
2022/04/21 07:06:41;;;;;;;14.98;9.27;;;;;;;12.81;78.60;100641.25;4931603;29;20051;-84
2022/04/21 07:09:08;;;;;;;11.10;9.88;;;;;;;12.55;78.17;100597.69;4929754;29;20313;-84
2022/04/21 07:11:37;;;;;;;11.15;10.05;;;;;;;12.59;78.42;100620.34;4929143;29;20055;-85
2022/04/21 07:14:05;;;;;;;13.23;9.98;;;;;;;12.72;79.09;100635.97;4929955;29;20055;-86
2022/04/21 07:16:31;;;;;;;14.15;10.35;;;;;;;12.65;78.48;100632.25;4945251;29;20063;-84
2022/04/21 07:18:58;;;;;;;12.23;9.65;;;;;;;12.03;78.89;100529.03;4929400;29;20087;-84
2022/04/21 07:21:25;;;;;;;11.43;10.35;;;;;;;12.59;78.45;100626.50;4930475;29;20494;-84
2022/04/21 07:23:52;;;;;;;11.90;10.73;;;;;;;12.69;79.72;100631.78;4928091;29;20127;-83
2022/04/21 07:26:20;;;;;;;11.63;8.82;;;;;;;12.57;79.68;100606.34;4929063;29;20047;-83
2022/04/21 07:28:46;;;;;;;10.43;9.27;;;;;;;12.42;80.01;100571.41;4928984;29;20051;-84
2022/04/21 07:31:13;;;;;;;12.65;10.32;;;;;;;12.37;80.00;100552.38;4929642;29;20498;-84
2022/04/21 07:33:40;;;;;;;11.63;10.15;;;;;;;12.52;79.76;100566.84;4928651;29;20146;-85
2022/04/21 07:36:07;;;;;;;12.05;9.35;;;;;;;12.48;80.26;100564.66;4928636;29;20058;-84
2022/04/21 07:38:34;;;;;;;11.05;9.95;;;;;;;12.52;80.47;100577.50;4935844;29;20058;-83
2022/04/21 07:41:02;;;;;;;10.27;8.77;;;;;;;12.82;81.38;100618.97;4941357;29;20061;-84
2022/04/21 07:43:33;;;;;;;9.07;7.97;;;;;;;12.14;80.62;100501.41;4943345;29;20142;-84
2022/04/21 07:45:59;;;;;;;8.10;7.40;;;;;;;12.77;80.76;100623.91;4931538;29;20482;-84
2022/04/21 07:49:45;;;;;;;8.07;7.28;;;;;;;11.95;81.24;100494.34;4930707;29;20057;-86
2022/04/21 07:51:13;;;;;;;8.38;7.13;;;;;;;11.52;80.66;100413.34;4931494;29;20056;-85
2022/04/21 07:53:40;;;;;;;6.90;6.07;;;;;;;12.06;80.40;100510.09;4930421;29;20063;-86
2022/04/21 07:56:06;;;;;;;7.25;5.38;;;;;;;12.80;80.18;100634.25;4929986;29;20066;-86
2022/04/21 07:58:34;;;;;;;6.22;4.78;;;;;;;12.58;80.21;100598.22;4929770;29;20372;-87
2022/04/21 08:01:01;;;;;;;7.15;4.90;;;;;;;12.69;80.60;100604.31;4929921;29;20051;-87
2022/04/21 08:03:35;;;;;;;8.50;4.65;;;;;;;11.90;80.17;100475.34;4929588;29;20062;-86
2022/04/21 08:06:01;;;;;;;8.05;4.78;;;;;;;11.33;80.03;100345.16;4929778;29;20056;-87
2022/04/21 08:08:28;;;;;;;5.03;4.53;;;;;;;11.90;79.93;100470.03;4929796;29;20087;-86
2022/04/21 08:10:55;;;;;;;5.20;4.70;;;;;;;12.85;80.38;100639.13;4929457;29;20155;-87
2022/04/21 08:13:23;;;;;;;6.30;5.07;;;;;;;12.24;80.51;100534.13;4930574;28;20055;-87
2022/04/21 08:15:53;;;;;;;5.40;4.90;;;;;;;11.23;80.85;100368.28;4930669;28;20059;-86
2022/04/21 08:18:20;;;;;;;5.43;4.78;;;;;;;12.30;79.54;100503.38;4929261;29;20051;-86
2022/04/21 08:20:48;;;;;;;5.95;5.05;;;;;;;12.55;79.27;100539.94;4931001;29;20051;-85
2022/04/21 08:23:15;;;;;;;8.57;5.43;;;;;;;12.90;78.99;100591.56;4935541;29;20055;-83
2022/04/21 08:34:31;;;;;;;7.70;5.90;;;;;;;12.76;79.45;100568.09;4907984;29;20651;-84
2022/04/21 08:37:00;;;;;;;7.55;5.82;;;;;;;13.00;79.43;100607.47;4908133;29;20040;-85
2022/04/21 08:39:26;;;;;;;6.10;5.50;;;;;;;12.95;79.05;100594.59;4917787;28;20062;-84
2022/04/21 08:42:03;;;;;;;8.40;5.85;;;;;;;13.20;79.20;100629.47;4947975;28;20051;-85
2022/04/21 08:44:33;;;;;;;6.55;5.95;;;;;;;13.12;79.59;100627.56;4963342;28;20056;-85
2022/04/21 08:47:05;;;;;;;7.00;6.13;;;;;;;13.04;79.05;100607.03;4963423;28;20389;-83
2022/04/21 08:49:33;;;;;;;10.27;7.32;;;;;;;12.85;79.67;100577.84;4938065;29;20051;-85
2022/04/21 08:52:01;;;;;;;7.28;6.43;;;;;;;12.67;78.96;100524.59;4931876;29;20557;-84
2022/04/21 08:54:30;;;;;;;6.85;6.13;;;;;;;12.80;78.51;100572.16;4927868;29;20055;-84
2022/04/21 08:56:57;;;;;;;10.38;7.07;;;;;;;13.11;79.26;100614.41;4943992;28;20066;-83
2022/04/21 08:59:25;;;;;;;8.07;7.13;;;;;;;13.09;79.62;100617.22;4928576;29;20490;-84
2022/04/21 09:01:52;;;;;;;6.47;5.97;;;;;;;13.09;78.43;100622.56;4928662;29;20143;-84
2022/04/21 09:04:18;;;;;;;6.35;5.75;;;;;;;12.89;78.44;100602.34;4944047;28;20449;-84
2022/04/21 09:06:45;;;;;;;5.68;4.95;;;;;;;12.94;78.19;100603.59;4928328;29;20097;-83
2022/04/21 09:09:21;;;;;;;6.00;5.43;;;;;;;13.03;78.19;100618.69;4928722;29;20296;-83
2022/04/21 09:11:55;;;;;;;7.25;6.50;;;;;;;12.88;78.85;100598.03;4928344;29;20449;-84
2022/04/21 09:14:22;;;;;;;4.95;4.55;;;;;;;12.34;77.27;100494.13;4929486;29;20048;-83
2022/04/21 09:16:49;;;;;;;6.28;4.53;;;;;;;13.08;77.24;100630.69;4927676;29;20493;-82
2022/04/21 09:19:16;;;;;;;5.60;4.80;;;;;;;12.89;76.45;100568.59;4928402;29;20047;-83
2022/04/21 09:21:43;;;;;;;6.47;4.28;;;;;;;13.08;76.35;100614.69;4928114;29;20071;-83
2022/04/21 09:24:24;;;;;;;5.00;4.13;;;;;;;11.47;75.62;100346.50;4940524;28;20548;-83
2022/04/21 09:26:52;;;;;;;3.90;3.50;;;;;;;12.96;76.69;100614.09;4963303;28;20282;-83
2022/04/21 09:29:24;;;;;;;8.10;4.00;;;;;;;12.85;76.95;100628.47;4947181;28;20043;-83
2022/04/21 09:31:59;;;;;;;6.15;4.13;;;;;;;12.93;76.39;100643.69;4947107;28;20073;-82
2022/04/21 09:34:34;;;;;;;5.60;4.57;;;;;;;12.76;77.05;100619.53;4946889;28;20062;-82
2022/04/21 09:37:04;;;;;;;9.55;4.80;;;;;;;12.55;77.65;100603.84;4947206;28;20058;-82
2022/04/21 09:39:31;;;;;;;5.53;5.03;;;;;;;12.66;77.48;100610.78;4945841;28;20335;-82
2022/04/21 09:41:58;;;;;;;8.43;5.25;;;;;;;12.82;77.81;100642.09;4944985;29;20044;-81
2022/04/21 09:47:21;;;;;;;7.63;4.38;;;;;;;12.50;78.47;100579.50;4929669;29;20055;-83
2022/04/21 09:49:48;;;;;;;5.40;3.90;;;;;;;12.23;78.54;100542.22;4930369;29;20055;-84
2022/04/21 09:52:27;;;;;;;9.10;4.28;;;;;;;12.52;78.34;100590.81;4926599;29;20119;-84
2022/04/21 09:54:54;;;;;;;5.63;4.40;;;;;;;12.83;78.17;100630.44;4926198;29;20051;-84
2022/04/21 09:57:31;;;;;;;9.60;4.25;;;;;;;12.71;78.34;100618.34;4925940;29;20055;-84
2022/04/21 09:59:59;;;;;;;6.15;4.72;;;;;;;12.88;78.01;100644.16;4925930;29;20044;-83
2022/04/21 10:02:29;;;;;;;8.13;4.65;;;;;;;12.86;78.08;100634.63;4923620;29;20509;-84
2022/04/21 10:04:58;;;;;;;9.02;4.40;;;;;;;12.61;78.42;100576.59;4925389;29;20130;-85
2022/04/21 10:07:26;;;;;;;10.38;4.20;;;;;;;12.57;78.10;100580.59;4926027;29;20763;-85
2022/04/21 10:09:54;;;;;;;4.95;4.03;;;;;;;12.68;78.51;100607.97;4926432;29;20372;-85
2022/04/21 10:12:22;;;;;;;5.30;4.25;;;;;;;12.96;77.25;100628.28;4926819;29;20052;-84
2022/04/21 10:14:50;;;;;;;4.53;3.92;;;;;;;12.78;76.39;100572.28;4926588;29;20048;-85
2022/04/21 10:17:16;;;;;;;6.35;4.40;;;;;;;12.89;76.62;100627.19;4927023;29;20071;-85
2022/04/21 10:19:49;;;;;;;5.07;4.55;;;;;;;12.77;77.62;100618.56;4928489;29;21196;-85
2022/04/21 10:22:22;;;;;;;7.80;4.38;;;;;;;12.96;76.73;100622.94;4928420;29;20086;-85
2022/04/21 10:24:55;;;;;;;8.07;4.28;;;;;;;12.71;76.89;100592.53;4927503;29;20043;-85
2022/04/21 10:27:46;;;;;;;7.40;3.83;;;;;;;12.87;77.18;100623.00;4927545;29;20058;-84
2022/04/21 10:30:21;;;;;;;6.28;4.15;;;;;;;12.94;76.87;100624.91;4927702;29;20063;-85
2022/04/21 10:32:56;;;;;;;6.15;3.92;;;;;;;12.85;77.25;100612.50;4950825;28;20070;-83
2022/04/21 10:35:23;;;;;;;4.72;3.78;;;;;;;12.10;76.95;100481.38;4940966;29;20136;-84
2022/04/21 10:38:14;;;;;;;5.97;3.80;;;;;;;12.97;77.27;100624.59;4959177;28;20051;-84
2022/04/21 10:41:00;;;;;;;5.40;3.50;;;;;;;13.16;76.38;100620.13;4942835;29;20298;-84
2022/04/21 10:43:52;;;;;;;6.05;3.38;;;;;;;13.21;75.18;100620.50;4946944;29;20052;-83
2022/04/21 10:46:26;;;;;;;3.60;3.08;;;;;;;13.14;75.85;100614.09;4947478;28;20063;-84
2022/04/21 10:48:53;;;;;;;7.80;3.40;;;;;;;13.15;75.84;100605.94;4948320;28;20208;-82
2022/04/21 10:57:29;;;;;;;6.13;3.20;;;;;;;12.84;75.99;100568.19;4930328;29;20052;-83
2022/04/21 11:00:03;;;;;;;3.97;3.60;;;;;;;13.10;76.03;100596.72;4931433;28;20059;-83
2022/04/21 11:02:59;;;;;;;5.07;3.40;;;;;;;13.11;76.21;100599.25;4945887;29;20544;-84
2022/04/21 11:05:30;;;;;;;4.15;3.60;;;;;;;13.20;74.47;100570.81;4945874;29;20051;-84
2022/04/21 11:07:59;;;;;;;5.68;3.97;;;;;;;13.11;75.75;100585.94;4946383;29;20048;-82
2022/04/21 11:10:39;;;;;;;7.85;3.92;;;;;;;13.12;75.93;100589.44;4945930;28;20500;-81
2022/04/21 11:13:07;;;;;;;8.63;3.85;;;;;;;12.72;75.77;100521.44;4946360;28;20130;-83
2022/04/21 11:15:54;;;;;;;3.78;2.92;;;;;;;13.03;75.10;100584.03;4930188;29;20051;-84
2022/04/21 11:18:29;;;;;;;4.65;3.00;;;;;;;13.22;75.27;100595.50;4929964;29;20072;-82
2022/04/21 11:21:22;;;;;;;4.03;3.28;;;;;;;13.16;75.28;100596.97;4930832;29;20627;-83
2022/04/21 11:23:49;;;;;;;3.67;3.33;;;;;;;13.11;76.45;100604.59;4937680;29;20051;-83
2022/04/21 11:26:16;;;;;;;7.13;3.90;;;;;;;13.10;76.18;100586.91;4963422;28;20057;-83
2022/04/21 11:28:45;;;;;;;3.95;3.55;;;;;;;13.30;77.14;100595.63;4946439;29;20051;-82
2022/04/21 11:31:13;;;;;;;7.15;4.50;;;;;;;13.17;77.43;100581.81;4947257;28;20047;-83
2022/04/21 11:33:40;;;;;;;5.15;4.65;;;;;;;13.14;77.79;100582.13;4947545;28;20113;-84
2022/04/21 11:36:09;;;;;;;9.18;5.45;;;;;;;13.02;79.58;100589.50;4962715;28;20058;-84
2022/04/21 11:38:39;;;;;;;8.55;6.53;;;;;;;12.23;80.04;100462.38;4946544;28;20078;-84
2022/04/21 11:41:09;;;;;;;7.63;6.93;;;;;;;12.33;80.16;100487.09;4963227;28;20412;-84
2022/04/21 11:43:44;;;;;;;8.88;7.80;;;;;;;12.71;80.26;100557.91;4947084;28;20055;-83
2022/04/21 11:46:12;;;;;;;7.88;7.18;;;;;;;11.34;80.18;100337.06;4948977;28;20051;-84
2022/04/21 11:48:41;;;;;;;8.65;7.90;;;;;;;11.44;80.16;100355.59;4964411;28;20391;-86
2022/04/21 11:51:10;;;;;;;8.77;7.90;;;;;;;12.86;81.04;100578.69;4947337;28;20110;-86
2022/04/21 11:53:43;;;;;;;8.60;7.90;;;;;;;12.02;80.54;100442.22;4947340;28;20051;-86
2022/04/21 11:56:10;;;;;;;;;;;;;;;12.94;79.65;100578.78;4965250;28;20054;-86
2022/04/21 11:58:44;;;;;;;11.23;8.13;;;;;;;12.80;80.64;100559.66;4948572;28;19928;-86
2022/04/21 12:06:55;;;;;;;7.63;6.93;;;;;;;12.72;79.22;100524.09;4937284;29;20052;-85
2022/04/21 12:09:29;;;;;;;7.90;6.60;;;;;;;12.81;79.95;100549.84;4931341;29;20144;-84
2022/04/21 12:11:57;;;;;;;7.43;6.82;;;;;;;12.92;79.29;100546.94;4929201;29;20470;-86
2022/04/21 12:14:25;;;;;;;9.43;6.75;;;;;;;12.82;80.25;100563.00;4929204;29;20048;-84
2022/04/21 12:16:59;;;;;;;10.77;7.13;;;;;;;13.03;80.17;100573.38;4929905;29;20044;-85
2022/04/21 12:19:33;;;;;;;7.82;7.07;;;;;;;12.88;79.93;100569.56;4929039;29;20618;-85
2022/04/21 12:22:07;;;;;;;7.55;5.78;;;;;;;12.60;79.57;100518.19;4950715;28;20051;-85
2022/04/21 12:24:38;;;;;;;7.45;6.47;;;;;;;12.64;79.58;100527.53;4964033;28;20054;-84
2022/04/21 12:27:12;;;;;;;6.97;6.30;;;;;;;13.02;78.55;100568.19;4946084;28;20070;-86